Time;durP1;ratioP1;P1;durP2;ratioP2;P2;SDS_P1;SDS_P2;PMS_P1;PMS_P2;Temp;Humidity;BMP_temperature;BMP_pressure;BME280_temperature;BME280_humidity;BME280_pressure;Samples;Min_cycle;Max_cycle;Signal;HPM_P1;HPM_P2
2024/02/18 00:00:10;;;;;;;22.98;14.25;;;;;;;9.91;84.71;94138.72;2065286;69;20228;-78
2024/02/18 00:02:36;;;;;;;22.70;14.82;;;;;;;9.84;84.59;94140.25;2065282;69;20600;-78
2024/02/18 00:05:04;;;;;;;22.40;14.18;;;;;;;9.68;85.43;94147.28;2065123;69;20168;-79
2024/02/18 00:07:30;;;;;;;21.50;14.82;;;;;;;9.45;86.75;94146.66;2065391;69;20145;-78
2024/02/18 00:09:56;;;;;;;21.63;14.90;;;;;;;9.77;85.14;94151.56;2064711;69;20160;-79
2024/02/18 00:12:23;;;;;;;21.25;14.48;;;;;;;9.83;84.82;94150.00;2059125;69;20641;-79
2024/02/18 00:14:49;;;;;;;22.05;14.10;;;;;;;9.92;84.35;94159.91;2065294;69;20144;-79
2024/02/18 00:17:15;;;;;;;21.30;14.02;;;;;;;10.05;83.42;94154.00;2065223;69;20141;-79
2024/02/18 00:19:41;;;;;;;23.25;14.60;;;;;;;10.08;83.68;94160.53;2065154;69;20230;-78
2024/02/18 00:22:06;;;;;;;21.83;14.57;;;;;;;10.07;83.41;94162.59;2064755;69;20137;-78
2024/02/18 00:24:32;;;;;;;21.27;14.18;;;;;;;10.11;82.89;94162.22;2065141;69;20521;-78
2024/02/18 00:30:49;;;;;;;22.77;13.93;;;;;;;9.57;85.69;94154.09;2065220;69;20127;-79
2024/02/18 00:33:18;;;;;;;26.58;14.00;;;;;;;9.33;86.72;94151.94;2064508;69;20152;-78
2024/02/18 00:35:44;;;;;;;21.60;14.10;;;;;;;9.35;86.75;94144.47;2065145;69;20164;-79
2024/02/18 00:38:09;;;;;;;23.02;14.85;;;;;;;9.35;87.06;94138.09;2065230;69;20145;-79
2024/02/18 00:40:35;;;;;;;22.60;13.85;;;;;;;9.19;87.72;94133.84;2064550;69;20149;-78
2024/02/18 00:43:02;;;;;;;24.40;14.27;;;;;;;9.31;87.21;94137.72;2065003;69;20729;-78
2024/02/18 00:45:28;;;;;;;24.08;14.27;;;;;;;9.48;86.97;94143.44;2064298;69;20233;-78
2024/02/18 00:47:54;;;;;;;24.65;13.95;;;;;;;9.35;86.47;94132.47;2064977;69;20192;-78
2024/02/18 00:50:19;;;;;;;27.15;15.05;;;;;;;9.32;87.40;94130.78;2065011;69;20155;-79
2024/02/18 00:52:45;;;;;;;21.13;14.00;;;;;;;9.10;87.59;94126.75;2065132;69;20152;-79
2024/02/18 00:55:11;;;;;;;23.83;14.07;;;;;;;9.07;87.81;94137.06;2065184;69;20165;-79
2024/02/18 00:57:37;;;;;;;24.23;14.38;;;;;;;9.30;86.87;94117.31;2064653;69;20152;-78
2024/02/18 01:00:04;;;;;;;22.77;14.07;;;;;;;9.48;85.76;94123.03;2065113;69;20212;-79
2024/02/18 01:02:31;;;;;;;24.30;14.73;;;;;;;9.35;86.50;94124.03;2065192;69;20140;-78
2024/02/18 01:04:57;;;;;;;21.55;13.93;;;;;;;9.62;85.44;94124.25;2065194;69;20149;-78
2024/02/18 01:07:23;;;;;;;24.73;14.50;;;;;;;9.57;84.92;94128.78;2064715;69;20242;-78
2024/02/18 01:09:49;;;;;;;21.00;14.25;;;;;;;9.63;84.42;94134.94;2065061;69;20148;-78
2024/02/18 01:12:16;;;;;;;23.67;13.45;;;;;;;9.74;84.16;94139.38;2065205;69;20141;-77
2024/02/18 01:14:43;;;;;;;22.40;13.45;;;;;;;9.74;83.77;94136.56;2065217;69;20728;-78
2024/02/18 01:17:09;;;;;;;25.98;14.63;;;;;;;9.71;83.75;94132.06;2065280;69;20180;-78
2024/02/18 01:19:34;;;;;;;20.38;13.43;;;;;;;9.75;83.94;94131.69;2065361;69;20200;-78
2024/02/18 01:22:00;;;;;;;20.13;13.27;;;;;;;9.72;83.77;94127.22;2065150;69;20210;-78
2024/02/18 01:24:26;;;;;;;22.60;14.57;;;;;;;9.35;84.50;94110.00;2065104;69;20144;-78
2024/02/18 01:26:51;;;;;;;22.15;13.98;;;;;;;9.32;85.67;94128.72;2065264;69;20145;-78
2024/02/18 01:29:17;;;;;;;23.45;14.45;;;;;;;9.28;86.24;94125.56;2065283;69;20586;-79
2024/02/18 01:31:43;;;;;;;23.60;14.82;;;;;;;9.34;86.06;94122.53;2065175;69;20141;-78
2024/02/18 01:34:09;;;;;;;23.83;14.00;;;;;;;9.52;85.07;94132.56;2064640;69;20240;-78
2024/02/18 01:36:35;;;;;;;25.60;14.63;;;;;;;9.65;84.13;94129.50;2065156;69;20208;-78
2024/02/18 01:39:01;;;;;;;22.25;13.07;;;;;;;9.67;82.29;94117.69;2064587;69;20172;-78
2024/02/18 01:41:27;;;;;;;22.75;13.60;;;;;;;9.57;83.81;94122.41;2065183;69;20144;-79
2024/02/18 01:43:52;;;;;;;24.27;14.20;;;;;;;9.75;83.78;94131.69;2065126;69;20149;-79
2024/02/18 01:46:18;;;;;;;21.88;13.93;;;;;;;9.74;82.81;94128.13;2065422;69;20537;-78
2024/02/18 01:48:44;;;;;;;24.65;14.25;;;;;;;9.78;82.72;94128.47;2064930;69;20169;-79
2024/02/18 01:51:10;;;;;;;22.80;13.95;;;;;;;9.80;82.60;94128.66;2065087;69;20619;-78
2024/02/18 01:53:38;;;;;;;24.38;14.48;;;;;;;9.77;83.08;94135.44;2065357;69;20595;-78
2024/02/18 01:56:06;;;;;;;27.50;14.35;;;;;;;9.81;83.13;94132.22;2065394;69;20156;-79
2024/02/18 01:58:33;;;;;;;25.27;14.13;;;;;;;9.76;82.40;94136.00;2064793;69;20184;-77
2024/02/18 02:01:00;;;;;;;24.52;13.95;;;;;;;9.62;82.82;94136.28;2065089;69;20611;-77
2024/02/18 02:03:27;;;;;;;24.25;14.05;;;;;;;9.47;83.67;94127.91;2065170;69;20147;-77
2024/02/18 02:05:55;;;;;;;24.70;14.05;;;;;;;9.43;84.38;94131.09;2065261;69;20149;-77
2024/02/18 02:08:22;;;;;;;26.20;15.40;;;;;;;9.46;84.44;94134.09;2065094;69;20220;-77
2024/02/18 02:10:50;;;;;;;23.92;13.57;;;;;;;9.27;85.22;94129.69;2064490;69;20137;-77
2024/02/18 02:13:16;;;;;;;24.23;14.15;;;;;;;9.30;84.70;94128.56;2065170;69;20145;-77
2024/02/18 02:15:41;;;;;;;24.63;14.10;;;;;;;9.34;84.78;94125.34;2065159;69;20168;-77
2024/02/18 02:18:07;;;;;;;23.90;14.02;;;;;;;9.42;84.80;94128.88;2065027;69;20157;-77
2024/02/18 02:20:37;;;;;;;28.45;14.45;;;;;;;9.33;84.33;94124.59;2065377;69;20232;-78
2024/02/18 02:23:05;;;;;;;25.30;14.80;;;;;;;9.51;84.32;94133.88;2064694;69;20145;-78
2024/02/18 02:25:31;;;;;;;24.80;13.68;;;;;;;9.62;83.75;94127.84;2065213;69;20180;-78
2024/02/18 02:28:03;;;;;;;24.65;14.48;;;;;;;9.67;83.46;94129.69;2065158;69;20605;-78
2024/02/18 02:30:29;;;;;;;27.30;14.40;;;;;;;9.73;82.10;94121.00;2064961;69;20141;-77
2024/02/18 02:32:55;;;;;;;28.27;14.65;;;;;;;9.71;82.71;94123.63;2064469;69;20176;-78
2024/02/18 02:35:21;;;;;;;23.08;13.55;;;;;;;9.70;82.92;94124.97;2065073;69;20240;-78
2024/02/18 02:37:47;;;;;;;30.63;15.27;;;;;;;9.65;82.81;94109.81;2065092;69;20141;-78
2024/02/18 02:40:13;;;;;;;24.10;14.48;;;;;;;9.72;82.55;94122.34;2064830;69;20189;-78
2024/02/18 02:42:39;;;;;;;27.77;15.00;;;;;;;9.69;83.03;94117.84;2065032;69;20255;-78
2024/02/18 02:45:05;;;;;;;29.17;14.70;;;;;;;9.72;82.55;94119.53;2065117;69;20140;-78
2024/02/18 02:47:31;;;;;;;28.25;14.48;;;;;;;9.71;82.94;94118.00;2065189;69;20299;-78
2024/02/18 02:49:56;;;;;;;25.10;14.68;;;;;;;9.66;82.67;94113.34;2064994;69;20157;-78
2024/02/18 02:52:22;;;;;;;25.65;14.85;;;;;;;9.64;82.27;94110.38;2064610;69;20153;-78
2024/02/18 02:54:48;;;;;;;26.77;14.75;;;;;;;9.35;84.17;94113.53;2065229;69;20529;-77
2024/02/18 02:57:14;;;;;;;27.80;14.68;;;;;;;9.39;83.65;94099.84;2065059;69;20266;-77
2024/02/18 02:59:40;;;;;;;22.52;13.90;;;;;;;9.47;83.41;94104.66;2065191;69;20180;-77
2024/02/18 03:02:07;;;;;;;25.60;15.13;;;;;;;9.39;84.02;94101.88;2065401;69;20601;-77
2024/02/18 03:04:33;;;;;;;29.35;16.02;;;;;;;9.10;85.29;94095.84;2065184;69;20137;-77
2024/02/18 03:06:59;;;;;;;25.77;14.80;;;;;;;9.36;84.51;94100.22;2064801;69;20780;-77
2024/02/18 03:09:28;;;;;;;27.73;15.82;;;;;;;9.45;83.76;94102.44;2065177;69;20240;-77
2024/02/18 03:11:53;;;;;;;25.95;15.20;;;;;;;9.43;83.95;94094.56;2065231;69;20160;-77
2024/02/18 03:14:20;;;;;;;26.13;14.48;;;;;;;9.45;84.31;94093.25;2065020;69;20148;-77
2024/02/18 03:16:46;;;;;;;27.98;15.82;;;;;;;9.45;84.01;94091.19;2065702;69;20141;-77
2024/02/18 03:19:12;;;;;;;27.48;15.48;;;;;;;9.57;82.94;94097.09;2065472;69;20121;-78
2024/02/18 03:21:38;;;;;;;27.52;15.90;;;;;;;9.50;83.83;94093.03;2065709;69;20170;-77
2024/02/18 03:24:06;;;;;;;24.70;14.60;;;;;;;9.55;83.20;94096.94;2064932;69;20734;-77
2024/02/18 03:26:34;;;;;;;25.42;14.57;;;;;;;9.60;83.07;94095.97;2065583;69;20156;-77
2024/02/18 03:29:00;;;;;;;23.90;14.93;;;;;;;9.50;83.85;94095.84;2065671;69;20144;-78
2024/02/18 03:31:26;;;;;;;24.48;14.55;;;;;;;9.49;83.38;94085.19;2065415;69;20149;-78
2024/02/18 03:33:51;;;;;;;28.20;15.07;;;;;;;9.54;83.35;94087.03;2065323;69;20165;-77
2024/02/18 03:36:26;;;;;;;23.83;14.77;;;;;;;9.53;83.44;94099.56;2065313;69;20141;-77
2024/02/18 03:38:53;;;;;;;29.88;15.82;;;;;;;9.35;84.28;94096.69;2065451;69;20145;-78
2024/02/18 03:41:18;;;;;;;29.70;15.73;;;;;;;9.31;84.34;94089.97;2065437;69;20208;-78
2024/02/18 03:43:44;;;;;;;28.65;15.30;;;;;;;9.18;85.33;94101.44;2065485;69;20238;-77
2024/02/18 03:46:09;;;;;;;25.42;15.35;;;;;;;9.22;85.51;94099.00;2065714;69;20152;-78
2024/02/18 03:48:44;;;;;;;27.83;14.40;;;;;;;9.32;85.29;94100.63;2065577;69;20188;-77
2024/02/18 03:51:13;;;;;;;22.88;14.05;;;;;;;9.38;84.02;94101.13;2065371;69;20137;-76
2024/02/18 03:53:39;;;;;;;26.48;15.85;;;;;;;9.45;84.22;94096.81;2065275;69;20268;-77
2024/02/18 03:56:05;;;;;;;25.35;15.40;;;;;;;9.41;84.34;94099.25;2064818;69;20192;-77
2024/02/18 03:58:31;;;;;;;25.15;14.80;;;;;;;9.51;83.88;94099.41;2065101;69;20157;-77
2024/02/18 04:00:57;;;;;;;26.20;14.90;;;;;;;9.59;83.46;94105.72;2064992;69;20572;-78
2024/02/18 04:03:22;;;;;;;26.50;15.23;;;;;;;9.39;84.27;94093.44;2065379;69;20148;-77
2024/02/18 04:05:48;;;;;;;26.45;15.93;;;;;;;9.35;84.49;94088.25;2065675;69;20538;-78
2024/02/18 04:08:14;;;;;;;24.10;15.30;;;;;;;9.39;83.63;94096.25;2065413;69;20555;-78
2024/02/18 04:10:40;;;;;;;27.92;16.20;;;;;;;9.21;84.67;94095.44;2065601;69;20133;-78
2024/02/18 04:13:06;;;;;;;29.13;15.93;;;;;;;9.37;83.99;94096.84;2065504;69;20218;-78
2024/02/18 04:15:32;;;;;;;27.30;16.02;;;;;;;9.42;84.18;94089.50;2065116;69;20200;-78
2024/02/18 04:17:57;;;;;;;27.65;16.30;;;;;;;9.44;83.61;94078.47;2064953;69;20235;-78
2024/02/18 04:20:23;;;;;;;27.88;15.98;;;;;;;9.36;84.59;94084.09;2065725;69;20149;-78
2024/02/18 04:22:49;;;;;;;30.27;16.20;;;;;;;9.43;83.63;94074.88;2065483;69;20140;-78
2024/02/18 04:25:14;;;;;;;26.70;15.65;;;;;;;9.56;82.87;94084.38;2065485;69;20329;-78
2024/02/18 04:27:40;;;;;;;26.10;15.63;;;;;;;9.50;83.95;94076.16;2065205;69;20176;-78
2024/02/18 04:30:06;;;;;;;26.48;15.68;;;;;;;9.47;82.82;94066.06;2065370;69;20125;-78
2024/02/18 04:32:32;;;;;;;29.40;16.60;;;;;;;9.39;83.19;94068.94;2065437;69;20226;-78
2024/02/18 04:34:57;;;;;;;29.35;16.58;;;;;;;9.45;83.66;94082.00;2065451;69;20149;-78
2024/02/18 04:37:23;;;;;;;29.75;16.50;;;;;;;9.03;84.89;94063.66;2065484;69;20206;-78
2024/02/18 04:39:48;;;;;;;25.65;15.20;;;;;;;9.31;84.42;94082.28;2065341;69;20624;-79
2024/02/18 04:42:14;;;;;;;25.83;15.13;;;;;;;9.05;85.15;94091.94;2065473;69;20149;-78
2024/02/18 04:44:39;;;;;;;23.33;14.73;;;;;;;9.26;84.90;94086.03;2065455;69;20152;-78
2024/02/18 04:47:05;;;;;;;24.60;14.32;;;;;;;8.89;85.54;94088.44;2065230;69;20592;-79
2024/02/18 04:49:31;;;;;;;27.23;14.45;;;;;;;8.84;86.64;94092.22;2065278;69;20145;-78
2024/02/18 04:51:56;;;;;;;25.67;14.98;;;;;;;8.99;86.82;94099.81;2065434;69;20148;-78
2024/02/18 04:54:22;;;;;;;28.55;16.17;;;;;;;9.13;85.71;94094.72;2065460;69;20133;-78
2024/02/18 04:56:47;;;;;;;29.23;16.55;;;;;;;9.00;86.87;94098.50;2065443;69;20148;-78
2024/02/18 04:59:13;;;;;;;29.70;15.98;;;;;;;9.18;85.62;94102.19;2065455;69;20156;-78
2024/02/18 05:01:39;;;;;;;29.85;16.77;;;;;;;8.98;85.73;94097.56;2065477;69;20209;-78
2024/02/18 05:04:04;;;;;;;29.50;16.73;;;;;;;9.01;86.30;94099.25;2065396;69;20153;-78
2024/02/18 05:06:31;;;;;;;34.33;17.52;;;;;;;9.04;86.18;94096.06;2065115;69;20153;-78
2024/02/18 05:08:58;;;;;;;34.25;19.27;;;;;;;9.14;85.30;94094.13;2065450;69;20144;-78
2024/02/18 05:11:26;;;;;;;36.85;20.63;;;;;;;9.20;85.41;94093.19;2065312;69;20153;-79
2024/02/18 05:13:51;;;;;;;34.22;19.70;;;;;;;9.26;84.84;94091.66;2065233;69;20552;-78
2024/02/18 05:16:17;;;;;;;32.67;17.50;;;;;;;9.22;84.14;94084.94;2065418;69;20148;-78
2024/02/18 05:22:30;;;;;;;33.25;18.02;;;;;;;9.30;84.46;94083.59;2065107;69;20732;-78
2024/02/18 05:24:56;;;;;;;30.88;16.52;;;;;;;9.35;83.84;94093.88;2065126;69;20672;-78
2024/02/18 05:27:22;;;;;;;30.73;18.52;;;;;;;9.38;84.15;94089.16;2065322;69;20193;-78
2024/02/18 05:29:48;;;;;;;29.67;16.30;;;;;;;9.41;84.00;94080.34;2065331;69;20211;-78
2024/02/18 05:32:14;;;;;;;31.17;16.92;;;;;;;9.40;83.92;94087.28;2065621;69;20160;-77
2024/02/18 05:34:41;;;;;;;31.55;16.83;;;;;;;9.31;83.84;94073.09;2065322;69;20540;-78
2024/02/18 05:37:06;;;;;;;29.65;16.48;;;;;;;9.41;83.89;94085.22;2065334;69;20601;-78
2024/02/18 05:39:32;;;;;;;34.45;17.48;;;;;;;9.42;83.53;94089.50;2065443;69;20210;-78
2024/02/18 05:41:58;;;;;;;30.42;16.75;;;;;;;9.37;83.77;94090.47;2065086;69;20596;-78
2024/02/18 05:44:24;;;;;;;28.30;15.90;;;;;;;9.41;83.49;94088.03;2065122;69;20140;-78
2024/02/18 05:46:50;;;;;;;31.42;16.38;;;;;;;9.42;82.89;94089.50;2065281;69;20175;-77
2024/02/18 05:49:16;;;;;;;30.55;16.85;;;;;;;9.31;83.50;94082.28;2065316;69;20252;-77
2024/02/18 05:51:42;;;;;;;29.67;16.02;;;;;;;8.92;85.63;94083.72;2065315;69;20461;-77
2024/02/18 05:54:08;;;;;;;28.52;16.15;;;;;;;9.13;84.87;94089.09;2061815;69;20605;-77
2024/02/18 05:56:35;;;;;;;31.55;16.63;;;;;;;9.27;84.21;94090.34;2065024;69;20157;-77
2024/02/18 05:59:00;;;;;;;29.70;16.88;;;;;;;9.29;83.88;94096.13;2065183;69;20152;-77
2024/02/18 06:01:26;;;;;;;29.15;17.20;;;;;;;9.29;83.84;94098.94;2065237;69;20515;-78
2024/02/18 06:03:51;;;;;;;29.58;16.70;;;;;;;9.21;84.04;94103.09;2065305;69;20161;-77
2024/02/18 06:06:18;;;;;;;30.65;16.98;;;;;;;9.08;84.81;94102.03;2065184;69;20141;-78
2024/02/18 06:08:44;;;;;;;35.47;18.65;;;;;;;9.20;84.54;94113.59;2065292;69;20135;-77
2024/02/18 06:11:10;;;;;;;32.97;17.00;;;;;;;9.06;84.93;94103.91;2061941;69;20177;-77
2024/02/18 06:13:36;;;;;;;32.05;17.02;;;;;;;9.04;85.07;94095.31;2065141;69;20144;-77
2024/02/18 06:16:04;;;;;;;37.85;17.25;;;;;;;9.33;83.79;94113.34;2065196;69;20168;-78
2024/02/18 06:18:29;;;;;;;33.40;17.55;;;;;;;9.37;83.82;94118.59;2065145;69;20189;-78
2024/02/18 06:24:43;;;;;;;34.03;17.45;;;;;;;9.39;83.37;94118.75;2065398;69;20151;-79
2024/02/18 06:27:09;;;;;;;33.20;17.77;;;;;;;9.43;83.30;94108.59;2065316;69;20179;-79
2024/02/18 06:29:34;;;;;;;36.10;18.83;;;;;;;9.46;82.87;94120.03;2065377;69;20188;-79
2024/02/18 06:32:00;;;;;;;33.53;18.67;;;;;;;9.47;82.68;94119.47;2065410;69;20579;-79
2024/02/18 06:34:26;;;;;;;34.17;18.13;;;;;;;9.41;83.37;94107.69;2065145;69;20172;-79
2024/02/18 06:36:51;;;;;;;38.75;19.05;;;;;;;9.43;83.15;94116.28;2065324;69;20238;-79
2024/02/18 06:39:17;;;;;;;33.88;18.30;;;;;;;9.43;83.23;94108.59;2065314;69;20145;-79
2024/02/18 06:41:42;;;;;;;33.85;17.70;;;;;;;9.43;82.69;94105.06;2065252;69;20285;-79
2024/02/18 06:44:08;;;;;;;33.78;18.67;;;;;;;9.42;83.31;94109.19;2065266;69;20224;-79
2024/02/18 06:46:34;;;;;;;31.73;18.08;;;;;;;9.44;82.86;94112.19;2065214;69;20552;-79
2024/02/18 06:48:59;;;;;;;33.05;17.20;;;;;;;9.55;81.78;94111.00;2066160;69;20242;-79
2024/02/18 06:51:25;;;;;;;30.65;17.73;;;;;;;9.41;82.64;94119.69;2066288;69;20165;-78
2024/02/18 06:53:52;;;;;;;30.08;17.30;;;;;;;9.42;83.15;94117.63;2066309;69;20128;-79
2024/02/18 06:56:18;;;;;;;35.25;18.20;;;;;;;9.39;83.07;94115.94;2066373;69;20143;-79
2024/02/18 06:58:44;;;;;;;32.40;17.80;;;;;;;8.75;86.45;94114.47;2066542;69;20157;-79
2024/02/18 07:04:57;;;;;;;33.67;17.48;;;;;;;9.33;84.45;94118.97;2066305;69;20145;-78
2024/02/18 07:07:23;;;;;;;33.00;17.90;;;;;;;9.39;84.10;94116.72;2066090;69;20157;-76
2024/02/18 07:09:48;;;;;;;36.45;19.55;;;;;;;9.37;83.84;94104.53;2066281;69;20137;-77
2024/02/18 07:12:14;;;;;;;34.50;19.88;;;;;;;9.40;84.02;94111.84;2065627;69;20608;-77
2024/02/18 07:14:39;;;;;;;34.97;18.48;;;;;;;9.42;83.59;94109.94;2066249;69;20164;-77
2024/02/18 07:17:05;;;;;;;36.60;18.65;;;;;;;9.35;83.76;94112.78;2066454;69;20211;-75
2024/02/18 07:19:31;;;;;;;35.30;18.67;;;;;;;9.35;83.40;94110.00;2066279;69;20168;-77
2024/02/18 07:21:56;;;;;;;36.30;18.75;;;;;;;9.48;83.34;94108.97;2066247;69;20168;-77
2024/02/18 07:24:22;;;;;;;32.28;18.85;;;;;;;9.56;83.69;94110.41;2066336;69;20260;-77
2024/02/18 07:26:47;;;;;;;35.05;20.70;;;;;;;9.60;83.07;94113.59;2066290;69;20148;-77
2024/02/18 07:29:14;;;;;;;34.55;18.95;;;;;;;9.64;82.67;94113.94;2066121;69;20147;-77
2024/02/18 07:31:39;;;;;;;37.65;18.35;;;;;;;9.70;82.54;94108.09;2066072;69;20140;-77
2024/02/18 07:34:05;;;;;;;34.50;18.45;;;;;;;9.78;82.67;94108.78;2066064;69;20144;-77
2024/02/18 07:36:32;;;;;;;41.20;19.92;;;;;;;9.78;82.27;94113.69;2066220;69;20161;-78
2024/02/18 07:38:58;;;;;;;35.75;19.15;;;;;;;9.85;82.15;94108.00;2066268;69;20588;-77
2024/02/18 07:41:25;;;;;;;38.05;19.48;;;;;;;10.06;81.50;94113.28;2066142;69;20145;-78
2024/02/18 07:43:51;;;;;;;38.15;19.48;;;;;;;10.20;81.32;94108.13;2066255;69;20192;-80
2024/02/18 07:46:17;;;;;;;36.63;18.70;;;;;;;10.44;80.57;94117.88;2066222;69;20165;-78
2024/02/18 07:48:42;;;;;;;33.03;17.95;;;;;;;10.46;80.09;94120.13;2066197;69;20225;-79
2024/02/18 07:51:09;;;;;;;33.10;17.27;;;;;;;10.52;79.65;94115.75;2066358;69;20145;-78
2024/02/18 07:53:35;;;;;;;36.60;20.10;;;;;;;10.51;79.68;94114.25;2066201;69;20588;-78
2024/02/18 07:56:01;;;;;;;37.08;19.92;;;;;;;10.54;80.34;94120.81;2066145;69;20179;-78
2024/02/18 07:58:27;;;;;;;38.45;19.95;;;;;;;10.73;79.78;94114.63;2065465;69;20256;-78
2024/02/18 08:00:52;;;;;;;39.78;22.50;;;;;;;10.41;80.25;94125.44;2065111;69;20152;-76
2024/02/18 08:03:18;;;;;;;38.05;18.45;;;;;;;10.85;79.56;94118.44;2065621;69;20167;-77
2024/02/18 08:05:43;;;;;;;30.05;17.83;;;;;;;11.17;77.74;94112.63;2065105;69;20232;-77
2024/02/18 08:08:09;;;;;;;27.20;15.98;;;;;;;11.53;76.70;94108.44;2065618;69;20580;-78
2024/02/18 08:10:35;;;;;;;24.48;13.70;;;;;;;10.94;76.59;94101.63;2065784;69;20148;-77
2024/02/18 08:13:00;;;;;;;20.45;12.88;;;;;;;11.07;76.45;94113.88;2065423;69;20141;-77
2024/02/18 08:15:26;;;;;;;23.52;12.80;;;;;;;11.24;76.00;94107.50;2065665;69;20144;-78
2024/02/18 08:17:51;;;;;;;16.65;10.95;;;;;;;11.23;74.66;94109.56;2065535;69;20173;-78
2024/02/18 08:20:17;;;;;;;17.15;10.95;;;;;;;11.16;75.02;94107.59;2065588;69;20145;-79
2024/02/18 08:22:43;;;;;;;16.17;9.60;;;;;;;11.10;75.35;94113.47;2065003;69;20133;-76
2024/02/18 08:25:09;;;;;;;13.95;9.32;;;;;;;11.49;74.58;94108.09;2065545;69;20664;-77
2024/02/18 08:27:35;;;;;;;14.20;9.43;;;;;;;10.84;74.19;94097.22;2065674;69;20184;-77
2024/02/18 08:30:01;;;;;;;13.18;8.68;;;;;;;10.84;74.27;94106.44;2065757;69;20173;-78
2024/02/18 08:32:27;;;;;;;18.23;10.02;;;;;;;10.86;75.39;94095.34;2065480;69;20145;-80
2024/02/18 08:34:53;;;;;;;14.43;8.82;;;;;;;10.66;74.88;94096.47;2065503;69;20132;-77
2024/02/18 08:37:18;;;;;;;15.95;9.63;;;;;;;11.11;75.32;94100.13;2065224;69;20141;-80
2024/02/18 08:39:44;;;;;;;17.17;10.85;;;;;;;11.79;74.41;94095.69;2065569;69;20524;-77
2024/02/18 08:42:10;;;;;;;29.92;16.38;;;;;;;12.16;73.69;94096.47;2065448;69;20161;-79
2024/02/18 08:44:36;;;;;;;19.67;11.70;;;;;;;11.93;74.44;94096.06;2065560;69;20616;-76
2024/02/18 08:47:02;;;;;;;29.38;16.45;;;;;;;10.68;77.10;94096.66;2065592;69;20492;-77
2024/02/18 08:49:28;;;;;;;30.88;16.15;;;;;;;10.99;78.46;94105.50;2065474;69;20539;-77
2024/02/18 08:51:54;;;;;;;28.63;15.98;;;;;;;11.60;74.96;94099.13;2065045;69;20141;-78
2024/02/18 08:54:20;;;;;;;35.25;15.82;;;;;;;11.91;73.25;94107.19;2065573;69;20185;-81
2024/02/18 08:56:45;;;;;;;24.42;14.93;;;;;;;11.78;72.82;94101.91;2065415;69;20160;-82
2024/02/18 08:59:11;;;;;;;25.50;15.38;;;;;;;11.61;73.45;94097.06;2065368;69;20149;-81
2024/02/18 09:01:37;;;;;;;22.63;13.32;;;;;;;11.97;72.16;94099.22;2065444;69;20179;-80
2024/02/18 09:04:02;;;;;;;20.88;12.88;;;;;;;11.78;72.90;94099.09;2065349;69;20589;-82
2024/02/18 09:06:28;;;;;;;21.75;13.85;;;;;;;12.28;72.49;94090.25;2065580;69;20238;-81
2024/02/18 09:08:54;;;;;;;20.88;13.00;;;;;;;12.17;71.63;94089.47;2065392;69;20588;-76
2024/02/18 09:11:20;;;;;;;22.77;13.32;;;;;;;12.33;71.83;94084.34;2065586;69;20152;-79
2024/02/18 09:13:45;;;;;;;24.13;13.55;;;;;;;12.38;71.18;94085.41;2065523;69;20129;-77
2024/02/18 09:16:11;;;;;;;20.67;12.85;;;;;;;12.26;71.34;94081.63;2065500;69;20152;-78
2024/02/18 09:18:37;;;;;;;20.83;12.60;;;;;;;12.65;70.25;94086.06;2065524;69;20570;-75
2024/02/18 09:21:03;;;;;;;22.02;13.25;;;;;;;11.75;70.79;94069.97;2065553;69;20192;-75
2024/02/18 09:23:29;;;;;;;20.73;13.18;;;;;;;12.36;70.54;94077.50;2065569;69;20246;-80
2024/02/18 09:25:55;;;;;;;20.05;13.20;;;;;;;12.19;69.40;94077.63;2068255;69;20156;-75
2024/02/18 09:28:20;;;;;;;25.05;13.70;;;;;;;12.34;70.79;94071.72;2066451;69;20171;-81
2024/02/18 09:30:46;;;;;;;22.17;13.65;;;;;;;12.57;69.38;94073.41;2065242;69;20148;-79
2024/02/18 09:33:12;;;;;;;22.92;13.75;;;;;;;11.66;70.73;94071.41;2065633;69;20343;-78
2024/02/18 09:35:37;;;;;;;23.13;13.50;;;;;;;11.60;71.58;94061.72;2065460;69;20152;-78
2024/02/18 09:38:09;;;;;;;22.90;13.35;;;;;;;11.40;72.21;94061.59;2065603;69;20236;-80
2024/02/18 09:40:37;;;;;;;21.75;13.80;;;;;;;12.04;71.47;94058.06;2065736;69;20156;-77
2024/02/18 09:43:03;;;;;;;21.38;13.02;;;;;;;12.45;69.84;94062.66;2065141;69;20163;-75
2024/02/18 09:45:32;;;;;;;20.75;11.57;;;;;;;12.65;69.35;94057.81;2065391;69;20137;-76
2024/02/18 09:48:01;;;;;;;18.63;11.63;;;;;;;12.97;68.50;94053.81;2065317;69;20520;-77
2024/02/18 09:50:31;;;;;;;17.10;10.73;;;;;;;13.38;67.34;94058.88;2065470;69;20155;-77
2024/02/18 09:52:57;;;;;;;17.15;10.10;;;;;;;13.43;67.17;94055.75;2065448;69;20144;-78
2024/02/18 09:55:22;;;;;;;15.00;9.60;;;;;;;13.81;65.27;94053.41;2065430;69;20169;-75
2024/02/18 09:57:48;;;;;;;17.98;9.40;;;;;;;14.18;64.68;94045.38;2065160;69;20145;-75
2024/02/18 10:00:14;;;;;;;13.80;8.40;;;;;;;14.59;63.03;94045.31;2065361;69;20231;-75
2024/02/18 10:02:41;;;;;;;13.70;8.98;;;;;;;14.24;63.71;94035.19;2064895;69;20148;-77
2024/02/18 10:05:08;;;;;;;14.45;9.18;;;;;;;14.61;63.27;94036.94;2065458;69;20176;-81
2024/02/18 10:07:35;;;;;;;13.13;9.00;;;;;;;15.31;61.94;94033.75;2065116;69;20244;-79
2024/02/18 10:10:03;;;;;;;18.45;12.05;;;;;;;15.00;61.95;94026.09;2065300;69;20159;-80
2024/02/18 10:12:35;;;;;;;15.63;10.35;;;;;;;15.30;60.84;94035.06;2065359;69;20140;-77
2024/02/18 10:15:07;;;;;;;16.42;11.52;;;;;;;15.87;59.72;94027.38;2065413;69;20199;-78
2024/02/18 10:17:33;;;;;;;17.90;11.75;;;;;;;14.89;61.04;94024.69;2065546;69;20156;-80
2024/02/18 10:19:59;;;;;;;17.63;11.35;;;;;;;14.83;62.71;94024.25;2065346;69;20170;-78
2024/02/18 10:22:25;;;;;;;15.30;9.75;;;;;;;16.03;59.87;94019.84;2065134;69;20236;-79
2024/02/18 10:24:51;;;;;;;17.27;10.23;;;;;;;16.17;60.36;94012.19;2065651;69;20236;-79
2024/02/18 10:27:18;;;;;;;13.23;8.73;;;;;;;16.66;57.31;94003.72;2065109;69;20267;-76
2024/02/18 10:29:48;;;;;;;16.67;11.02;;;;;;;14.72;61.54;94016.44;2065158;69;20583;-78
2024/02/18 10:32:18;;;;;;;12.55;8.60;;;;;;;14.57;61.50;94003.44;2065297;69;20619;-76
2024/02/18 10:34:47;;;;;;;16.52;10.60;;;;;;;16.19;61.27;93992.44;2065328;69;20553;-76
2024/02/18 10:37:29;;;;;;;13.60;9.63;;;;;;;17.92;56.73;93995.94;2062087;69;20702;-77
2024/02/18 10:39:59;;;;;;;13.63;8.60;;;;;;;18.31;56.39;93983.72;2065322;69;20206;-78
2024/02/18 10:42:28;;;;;;;10.98;6.68;;;;;;;19.25;54.14;93983.53;2065492;69;20317;-77
2024/02/18 10:44:56;;;;;;;8.38;6.03;;;;;;;19.58;51.19;93979.38;2065328;69;20153;-78
2024/02/18 10:47:24;;;;;;;9.20;6.43;;;;;;;17.60;52.23;93979.91;2065426;69;20164;-75
2024/02/18 10:50:06;;;;;;;8.57;5.97;;;;;;;18.31;53.23;93974.44;2065237;69;20149;-82
2024/02/18 10:52:44;;;;;;;9.93;6.85;;;;;;;19.50;51.18;93971.16;2065348;69;20141;-75
2024/02/18 10:55:39;;;;;;;5.70;4.20;;;;;;;19.54;49.06;93964.91;2065272;69;20148;-77
2024/02/18 10:58:11;;;;;;;8.77;6.63;;;;;;;19.88;48.31;93960.09;2065438;69;20141;-75
2024/02/18 11:00:41;;;;;;;8.68;5.90;;;;;;;20.29;48.64;93950.50;2065538;69;20240;-76
2024/02/18 11:03:45;;;;;;;5.00;3.30;;;;;;;21.73;44.64;93950.13;2065226;69;20598;-77
2024/02/18 11:06:11;;;;;;;;;;;;;;;22.21;43.07;93936.19;2065656;69;20202;-78
2024/02/18 11:08:40;;;;;;;3.58;2.50;;;;;;;23.24;43.16;93946.25;2065898;69;20052;-79
2024/02/18 11:11:09;;;;;;;5.15;2.55;;;;;;;23.22;40.86;93944.03;2065549;69;20175;-76
2024/02/18 11:13:35;;;;;;;3.47;2.58;;;;;;;23.37;41.48;93930.91;2065660;69;20177;-77
2024/02/18 11:16:01;;;;;;;3.65;2.38;;;;;;;25.05;39.54;93931.50;2067783;69;20153;-75
2024/02/18 11:18:29;;;;;;;2.90;1.90;;;;;;;25.36;39.02;93917.91;2065922;69;20222;-78
2024/02/18 11:20:57;;;;;;;3.53;1.90;;;;;;;26.70;35.74;93919.47;2065487;69;20145;-80
2024/02/18 11:23:22;;;;;;;2.50;1.80;;;;;;;25.83;35.75;93916.16;2064939;69;20179;-78
2024/02/18 11:25:48;;;;;;;1.98;1.33;;;;;;;27.19;32.93;93900.19;2065272;69;20157;-79
2024/02/18 11:28:14;;;;;;;2.58;1.90;;;;;;;28.98;33.34;93904.91;2065206;69;20176;-80
2024/02/18 11:30:40;;;;;;;1.80;1.30;;;;;;;28.03;32.50;93894.28;2065355;69;20639;-82
2024/02/18 11:33:07;;;;;;;2.13;1.48;;;;;;;28.81;30.93;93896.00;2065301;69;20148;-81
2024/02/18 11:35:33;;;;;;;1.40;1.30;;;;;;;29.47;32.24;93891.63;2065832;69;20197;-78